Airfield :
LOGIN :

Register | Disclaimer

   EN    FR    IT 

 










Legend :    VFR   Marginal VFR   IFR   Intensive IFR   Very Intensive IFR
Visi :
Ceiling :
>= 8 km
>= 3000ft
5 to 8 km
1000 to 3000 ft
1500m to 5 km
500 to 1000 ft
800 to 1500m
200 to 500 ft
< 800m
< 200 ft
Symbols :   Thunderstorms  Fog  Heavy snow  Heavy precipitations  Wind > 20 kt
SIGMETs :     Misc.  Thunderstorms  Icing  Turbulence  Mountain Waves  Volcanic Ashes






- Airport Elevation : 36 ft
- IATA code : LTQ


LFAT - Le Touquet

CURRENT METAR :
  • 200030Z AUTO 22011KT 190V250 9999 FEW028 BKN036 BKN042 09/07 Q1018

EXPIRED METARs :
  • 200000Z AUTO 22013KT 180V250 9999 BKN046 OVC054 09/07 Q1018
  • 192330Z AUTO 21010KT 180V250 CAVOK 09/07 Q1018
  • 192300Z AUTO 22011G22KT 190V260 9999 FEW021 OVC054 09/07 Q1018
  • 192230Z AUTO 23013KT 200V260 9999 FEW019 OVC052 09/07 Q1019
  • 192200Z AUTO 22012KT 200V260 9999 FEW020 BKN056 OVC100 09/07 Q1019

Expired Forecast.
ATIS : +33 3 21 06 62 84



MET'MAP, your aeronautical weather chart ! - Copyright ORBIFLY December 2007 - Disclaimer

ORBIFLY MET'MAP TEAM :

Programming & Development : Alexandra Zaïnal
Concept & original design : Baudouin d'Aumeries
Assistance for programming : Marc-Olivier Méhu
Technical & hardware support : Manuel Goepfert

Contact : metmap@orbifly.com




SOURCES & CREDITS :

   NOAA